Time;durP1;ratioP1;P1;durP2;ratioP2;P2;SDS_P1;SDS_P2;PMS_P1;PMS_P2;Temp;Humidity;BMP_temperature;BMP_pressure;BME280_temperature;BME280_humidity;BME280_pressure;Samples;Min_cycle;Max_cycle;Signal;HPM_P1;HPM_P2
2022/08/11 00:01:29;;;;;;;5.55;2.35;;;19.80;95.50;;;-144.05;41.58;125687.94;4904633;29;20042;-90
2022/08/11 00:04:05;;;;;;;2.95;1.90;;;19.70;96.40;;;-144.05;41.31;125687.94;4906866;29;20032;-90
2022/08/11 00:06:44;;;;;;;4.93;2.22;;;19.80;96.70;;;-144.05;41.39;125687.94;4890677;29;20055;-91
2022/08/11 00:09:23;;;;;;;4.65;2.03;;;19.80;97.30;;;-144.05;41.43;125687.94;4905127;29;20252;-90
2022/08/11 00:11:55;;;;;;;3.83;2.10;;;19.80;97.70;;;-144.05;41.67;125687.94;4888676;29;20033;-90
2022/08/11 00:14:33;;;;;;;7.53;2.55;;;19.70;98.50;;;-144.05;41.89;125687.94;4889557;29;20040;-90
2022/08/11 00:17:10;;;;;;;4.53;1.83;;;19.70;99.20;;;-144.05;41.92;125687.94;4887429;29;20032;-90
2022/08/11 00:19:45;;;;;;;3.03;2.10;;;19.60;99.80;;;-144.05;42.11;125687.94;4888238;29;20032;-90
2022/08/11 00:22:25;;;;;;;3.78;1.98;;;19.60;99.90;;;-144.05;42.34;125687.94;4889029;29;20036;-91
2022/08/11 00:24:52;;;;;;;5.82;2.05;;;19.50;99.90;;;-144.05;42.55;125687.94;4906896;29;20041;-90
2022/08/11 00:27:18;;;;;;;2.75;2.00;;;19.40;99.90;;;-144.05;42.85;125687.94;4888761;29;20024;-89
2022/08/11 00:29:54;;;;;;;5.75;1.80;;;19.40;99.90;;;-144.05;43.00;125687.94;4886988;29;20029;-91
2022/08/11 00:32:25;;;;;;;3.88;2.22;;;19.20;99.90;;;-144.05;42.98;125687.94;4905995;29;20180;-89
2022/08/11 00:34:57;;;;;;;4.95;2.13;;;19.30;99.90;;;-144.05;42.98;125687.94;4894318;29;20041;-90
2022/08/11 00:37:30;;;;;;;5.07;2.13;;;19.30;99.90;;;-144.05;42.97;125687.94;4890410;29;20124;-91
2022/08/11 00:40:35;;;;;;;3.78;2.03;;;19.20;99.90;;;-144.05;43.30;125687.94;4889211;29;20037;-91
2022/08/11 00:43:45;;;;;;;3.55;1.90;;;19.20;99.90;;;-144.05;43.48;125687.94;4890063;29;20052;-91
2022/08/11 00:46:24;;;;;;;4.20;2.30;;;19.10;99.90;;;-144.05;43.60;125687.94;4918170;29;20126;-91
2022/08/11 00:49:37;;;;;;;5.20;1.65;;;19.10;99.90;;;-144.05;43.64;125687.94;4920025;29;20037;-90
2022/08/11 00:52:58;;;;;;;4.25;1.80;;;19.00;99.90;;;-144.05;44.00;125687.94;4849664;29;20220;-89
2022/08/11 00:56:17;;;;;;;3.53;1.77;;;18.90;99.90;;;-144.05;44.85;125687.94;4850657;29;20097;-91
2022/08/11 00:59:33;;;;;;;5.03;2.17;;;18.80;99.90;;;-144.05;45.28;125687.94;4887936;29;20494;-90
2022/08/11 01:02:37;;;;;;;5.72;2.92;;;18.60;99.90;;;-144.05;46.37;125687.94;4887566;29;20036;-91
2022/08/11 01:05:56;;;;;;;4.95;2.72;;;18.40;99.90;;;-144.05;46.98;125687.94;4918468;29;20040;-91
2022/08/11 01:09:15;;;;;;;4.53;2.25;;;18.20;99.90;;;-144.05;47.39;125687.94;4887206;29;20040;-90
2022/08/11 01:12:20;;;;;;;3.58;2.38;;;18.10;99.90;;;-144.05;48.18;125687.94;4849670;29;20281;-92
2022/08/11 01:15:40;;;;;;;4.38;2.40;;;17.80;99.90;;;-144.05;49.15;125687.94;4905724;29;20036;-91
2022/08/11 01:18:52;;;;;;;3.88;2.35;;;17.60;99.90;;;-144.05;49.62;125687.94;4903053;29;20032;-91
2022/08/11 01:22:17;;;;;;;2.30;2.05;;;17.40;99.90;;;-144.05;50.37;125687.94;4906100;29;20039;-90
2022/08/11 01:25:43;;;;;;;5.30;2.33;;;17.30;99.90;;;-144.05;51.29;125687.94;4906751;29;20110;-91
2022/08/11 01:29:32;;;;;;;3.13;2.10;;;17.10;99.90;;;-144.05;51.47;125687.94;4906865;29;20044;-90
2022/08/11 01:33:18;;;;;;;3.28;2.17;;;17.00;99.90;;;-144.05;52.38;125687.94;4868451;29;20029;-90
2022/08/11 01:36:29;;;;;;;3.25;2.50;;;16.70;99.90;;;-144.05;53.20;125687.94;4907172;29;20606;-90
2022/08/11 01:39:36;;;;;;;3.22;2.20;;;16.60;99.90;;;-144.05;53.50;125687.94;4907201;29;20044;-90
2022/08/11 01:46:10;;;;;;;3.20;2.20;;;16.50;99.90;;;-144.05;54.11;125687.94;4909546;29;20051;-90
2022/08/11 01:49:02;;;;;;;3.80;2.35;;;16.40;99.90;;;-144.05;54.54;125687.94;4912378;29;20068;-90
2022/08/11 01:52:00;;;;;;;5.00;2.25;;;16.20;99.90;;;-144.05;55.34;125687.94;4910326;29;20028;-90
2022/08/11 01:55:05;;;;;;;6.97;2.70;;;16.00;99.90;;;-144.05;55.65;125687.94;4911124;29;20033;-88
2022/08/11 01:58:22;;;;;;;5.45;2.33;;;16.00;99.90;;;-144.05;55.61;125687.94;4910970;29;20032;-91
2022/08/11 02:01:49;;;;;;;;;;;;;;;;;;;;;
2022/08/11 02:04:47;;;;;;;;;;;;;;;;;;;;;
2022/08/11 02:07:59;;;;;;;4.75;2.47;;;16.40;99.90;;;-144.05;54.30;125687.94;4912038;29;20063;-90
2022/08/11 02:14:36;;;;;;;4.82;2.60;;;16.50;99.90;;;-144.05;53.47;125687.94;4911491;29;20039;-89
2022/08/11 02:17:49;;;;;;;7.38;2.85;;;16.60;99.90;;;-144.05;53.18;125687.94;4908811;29;20399;-91
2022/08/11 02:23:56;;;;;;;5.72;2.53;;;16.70;99.90;;;-144.05;52.38;125687.94;4911072;29;20048;-90
2022/08/11 02:26:35;;;;;;;;;;;;;;;;;;;;;
2022/08/11 02:30:10;;;;;;;7.72;2.80;;;16.80;99.90;;;-144.05;52.41;125687.94;4906508;29;20246;-91
2022/08/11 02:33:33;;;;;;;;;;;;;;;;;;;;;
2022/08/11 02:36:33;;;;;;;;;;;;;;;;;;;;;
2022/08/11 02:39:27;;;;;;;;;;;;;;;;;;;;;
2022/08/11 02:42:25;;;;;;;9.00;2.95;;;16.70;99.90;;;-144.05;52.87;125687.94;4910375;29;20111;-90
2022/08/11 02:45:31;;;;;;;10.60;3.38;;;16.70;99.90;;;-144.05;53.06;125687.94;4908047;29;20045;-91
2022/08/11 02:53:00;;;;;;;;;;;;;;;;;;;;;
2022/08/11 02:55:55;;;;;;;13.80;3.30;;;16.30;99.90;;;-144.05;55.54;125687.94;4875688;29;20080;-92
2022/08/11 03:02:27;;;;;;;;;;;15.70;99.90;;;-144.05;57.44;125687.94;4913714;29;20064;-90
2022/08/11 03:05:29;;;;;;;16.40;4.32;;;15.50;99.90;;;-144.05;58.11;125687.94;4908816;29;19991;-90
2022/08/11 03:08:23;;;;;;;11.77;4.25;;;15.40;99.90;;;-144.05;58.77;125687.94;4889633;29;20059;-90
2022/08/11 03:18:25;;;;;;;18.38;4.10;;;15.50;99.90;;;-144.05;58.29;125687.94;4911231;29;20055;-90
2022/08/11 03:21:24;;;;;;;;;;;;;;;;;;;;;
2022/08/11 03:24:32;;;;;;;8.32;3.67;;;15.40;99.90;;;-144.05;58.46;125687.94;4909772;29;20096;-90
2022/08/11 03:27:39;;;;;;;;;;;;;;;;;;;;;
2022/08/11 03:30:16;;;;;;;;;;;15.50;99.90;;;-144.05;57.64;125687.94;4914002;29;20064;-90
2022/08/11 03:36:09;;;;;;;9.82;3.10;;;15.60;99.90;;;-144.05;57.12;125687.94;4914477;29;19919;-91
2022/08/11 03:39:03;;;;;;;8.82;3.28;;;15.70;99.90;;;-144.05;56.88;125687.94;4916308;29;20031;-91
2022/08/11 03:41:52;;;;;;;5.57;3.40;;;15.80;99.90;;;-144.05;56.93;125687.94;4915840;29;20025;-91
2022/08/11 03:44:59;;;;;;;;;;;;;;;;;;;;;
2022/08/11 03:47:59;;;;;;;7.22;3.25;;;15.90;99.90;;;-144.05;56.86;125687.94;4918866;29;20067;-90
2022/08/11 03:51:27;;;;;;;;;;;;;;;;;;;;;
2022/08/11 03:54:54;;;;;;;9.90;3.47;;;15.80;99.90;;;-144.05;57.12;125687.94;4917837;29;20048;-90
2022/08/11 03:57:48;;;;;;;9.77;3.30;;;15.70;99.90;;;-144.05;57.12;125687.94;4895115;29;20049;-90
2022/08/11 04:04:21;;;;;;;6.20;2.75;;;15.70;99.90;;;-144.05;54.75;125687.94;4907120;29;20175;-90
2022/08/11 04:07:58;;;;;;;3.75;2.33;;;16.00;99.90;;;-144.05;54.13;125687.94;4920469;29;20076;-90
2022/08/11 04:10:59;;;;;;;7.20;3.00;;;16.20;99.90;;;-144.05;53.59;125687.94;4915627;29;20518;-91
2022/08/11 04:16:08;;;;;;;;;;;;;;;;;;;;;
2022/08/11 04:18:23;;;;;;;7.15;3.10;;;16.30;99.90;;;-144.05;53.90;125687.94;4850010;29;20176;-90
2022/08/11 04:22:08;;;;;;;;;;;;;;;;;;;;;
2022/08/11 04:25:08;;;;;;;9.30;2.88;;;16.20;99.90;;;-144.05;53.71;125687.94;4902295;29;20045;-89
2022/08/11 04:28:10;;;;;;;;;;;;;;;;;;;;;
2022/08/11 04:31:26;;;;;;;9.68;2.88;;;16.20;99.90;;;-144.05;53.47;125687.94;4908398;29;20076;-88
2022/08/11 04:34:38;;;;;;;7.00;3.08;;;16.30;99.90;;;-144.05;53.41;125687.94;4901601;29;20491;-88
2022/08/11 04:38:30;;;;;;;;;;;;;;;;;;;;;
2022/08/11 04:45:37;;;;;;;6.45;2.92;;;16.20;99.90;;;-144.05;53.43;125687.94;4906436;29;20067;-89
2022/08/11 05:03:33;;;;;;;5.03;2.60;;;16.60;99.90;;;-144.05;51.61;125687.94;4864633;29;20052;-90
2022/08/11 05:06:54;;;;;;;6.10;3.10;;;16.70;99.90;;;-144.05;51.18;125687.94;4904878;29;20111;-90
2022/08/11 05:10:17;;;;;;;8.07;2.88;;;16.80;99.90;;;-144.05;50.99;125687.94;4904831;29;20029;-90
2022/08/11 05:57:31;;;;;;;11.43;3.13;;;19.60;99.90;;;-144.05;43.08;125687.94;4868961;29;20410;-90
2022/08/11 06:00:27;;;;;;;5.90;3.30;;;19.90;99.90;;;-144.05;42.06;125687.94;4888257;29;20080;-89
2022/08/11 06:03:06;;;;;;;7.43;3.03;;;20.20;99.90;;;-144.05;41.89;125687.94;4871882;29;20029;-89
2022/08/11 06:05:37;;;;;;;6.43;3.53;;;20.40;99.90;;;-144.05;40.84;125687.94;4884514;29;20037;-90
2022/08/11 06:08:35;;;;;;;6.03;2.88;;;20.70;99.90;;;-144.05;40.07;125687.94;4915403;29;20036;-90
2022/08/11 06:11:18;;;;;;;7.25;3.15;;;20.90;99.90;;;-144.05;39.93;125687.94;4885251;29;20613;-91
2022/08/11 06:13:55;;;;;;;6.38;2.63;;;21.20;99.90;;;-144.05;39.12;125687.94;4883966;29;20084;-91
2022/08/11 06:17:20;;;;;;;10.63;3.10;;;21.50;99.90;;;-144.05;38.78;125687.94;4900814;29;20256;-91
2022/08/11 06:19:56;;;;;;;9.45;2.97;;;21.60;99.90;;;-144.05;38.40;125687.94;4902124;29;20092;-88
2022/08/11 06:22:46;;;;;;;10.15;3.40;;;22.00;99.90;;;-144.05;37.94;125687.94;4886009;29;20036;-89
2022/08/11 06:25:18;;;;;;;6.75;2.65;;;22.10;99.90;;;-144.05;38.24;125687.94;4887251;29;20033;-89
2022/08/11 06:27:55;;;;;;;7.75;3.05;;;22.30;99.90;;;-144.05;37.81;125687.94;4885447;29;20035;-91
2022/08/11 06:30:43;;;;;;;9.13;2.70;;;22.60;99.90;;;-144.05;37.45;125687.94;4885121;29;20037;-88
2022/08/11 06:33:45;;;;;;;;;;;;;;;;;;;;;
2022/08/11 06:36:44;;;;;;;6.65;3.17;;;23.00;99.90;;;-144.05;36.60;125687.94;4901082;29;20119;-88
2022/08/11 06:40:00;;;;;;;7.43;2.85;;;23.20;99.90;;;-144.05;36.15;125687.94;4890514;29;20058;-89
2022/08/11 06:43:02;;;;;;;5.80;2.75;;;23.50;99.90;;;-144.05;35.96;125687.94;4895573;29;20033;-91
2022/08/11 06:46:20;;;;;;;;;;;;;;;;;;;;;
2022/08/11 06:48:52;;;;;;;6.03;2.95;;;23.90;98.50;;;-144.05;35.07;125687.94;4901295;29;20089;-90
2022/08/11 06:51:22;;;;;;;10.00;3.50;;;23.90;97.40;;;-144.05;35.19;125687.94;4916841;29;20064;-90
2022/08/11 07:01:35;;;;;;;6.68;3.38;;;24.40;96.20;;;-144.05;34.65;125687.94;4902356;29;20047;-90
2022/08/11 07:04:42;;;;;;;7.70;3.15;;;24.40;95.40;;;-144.05;34.41;125687.94;4892056;29;20089;-91
2022/08/11 07:16:04;;;;;;;;;;;;;;;;;;;;;
2022/08/11 07:29:23;;;;;;;6.97;2.83;;;26.50;90.30;;;-144.05;32.14;125687.94;4870775;29;20462;-88
2022/08/11 07:32:53;;;;;;;;;;;;;;;;;;;;;
2022/08/11 07:35:54;;;;;;;7.88;3.00;;;26.80;83.10;;;-144.05;31.41;125687.94;4899818;29;20116;-90
2022/08/11 07:39:05;;;;;;;10.45;3.10;;;26.90;82.10;;;-144.05;31.07;125687.94;4899113;29;20444;-88
2022/08/11 07:42:29;;;;;;;;;;;;;;;;;;;;;
2022/08/11 07:54:33;;;;;;;7.10;3.20;;;27.50;76.40;;;-144.05;30.50;125687.94;4888500;29;20039;-89
2022/08/11 08:20:11;;;;;;;8.02;3.08;;;28.70;69.20;;;-144.05;28.84;125687.94;4905751;29;20067;-89
2022/08/11 08:22:42;;;;;;;7.18;3.15;;;28.90;68.40;;;-144.05;29.06;125687.94;4887777;29;20431;-89
2022/08/11 08:25:16;;;;;;;7.35;2.50;;;29.20;68.20;;;-144.05;28.82;125687.94;4887500;29;20036;-90
2022/08/11 08:27:55;;;;;;;6.88;2.95;;;29.10;67.10;;;-144.05;28.50;125687.94;4887456;29;20051;-90
2022/08/11 08:33:24;;;;;;;5.40;2.80;;;29.90;65.90;;;-144.05;27.48;125687.94;4902953;29;20559;-89
2022/08/11 08:40:34;;;;;;;5.35;2.72;;;30.00;62.60;;;-144.05;27.89;125687.94;4825749;29;20031;-90
2022/08/11 08:43:26;;;;;;;5.35;2.20;;;30.00;62.90;;;-144.05;27.48;125687.94;4840733;29;20039;-88
2022/08/11 08:45:59;;;;;;;8.45;2.92;;;30.50;61.80;;;-144.05;27.18;125687.94;4817098;29;20069;-89
2022/08/11 08:48:35;;;;;;;5.45;2.50;;;30.70;60.70;;;-144.05;27.06;125687.94;4901018;29;20048;-90
2022/08/11 08:54:21;;;;;;;9.20;2.53;;;31.10;59.80;;;-144.05;27.00;125687.94;4904282;29;20389;-89
2022/08/11 08:57:04;;;;;;;4.35;2.25;;;31.10;60.00;;;-144.05;26.81;125687.94;4886279;29;20044;-90
2022/08/11 08:59:48;;;;;;;7.30;2.83;;;31.30;59.50;;;-144.05;26.52;125687.94;4901123;29;20504;-88
2022/08/11 09:02:23;;;;;;;6.60;2.60;;;31.70;59.00;;;-144.05;26.38;125687.94;4902633;29;20545;-91
2022/08/11 09:05:26;;;;;;;5.40;2.42;;;31.50;56.90;;;-144.05;26.08;125687.94;4886045;29;20032;-90
2022/08/11 09:07:58;;;;;;;3.15;2.25;;;31.70;58.50;;;-144.05;26.11;125687.94;4881264;29;20059;-89
2022/08/11 09:10:29;;;;;;;6.25;2.30;;;31.70;56.70;;;-144.05;25.84;125687.94;4900843;29;20060;-89
2022/08/11 09:13:11;;;;;;;3.83;2.47;;;31.60;55.80;;;-144.05;25.99;125687.94;4886070;29;20146;-90
2022/08/11 09:15:54;;;;;;;;;;;;;;;;;;;;;
2022/08/11 09:18:32;;;;;;;7.55;2.33;;;31.60;56.50;;;-144.05;25.77;125687.94;4903457;29;20123;-90
2022/08/11 09:21:15;;;;;;;6.38;2.58;;;31.80;55.30;;;-144.05;25.61;125687.94;4916764;29;20036;-90
2022/08/11 09:27:07;;;;;;;2.92;1.83;;;31.90;54.80;;;-144.05;25.49;125687.94;4904200;29;20104;-90
2022/08/11 09:29:56;;;;;;;7.10;2.60;;;31.90;54.60;;;-144.05;25.30;125687.94;4885468;29;20455;-90
2022/08/11 09:42:05;;;;;;;5.45;2.35;;;32.70;50.50;;;-144.05;24.93;125687.94;4903334;29;20035;-90
2022/08/11 09:48:52;;;;;;;;;;;;;;;;;;;;;
2022/08/11 09:54:49;;;;;;;3.58;1.70;;;32.50;48.80;;;-144.05;23.32;125687.94;4902958;29;20045;-91
2022/08/11 10:08:00;;;;;;;5.22;2.25;;;32.50;46.20;;;-144.05;22.94;125687.94;4890020;29;20077;-88
2022/08/11 10:11:29;;;;;;;;;;;32.90;45.60;;;-144.05;22.52;125687.94;4912618;29;20064;-90
2022/08/11 10:16:46;;;;;;;3.13;2.13;;;33.20;45.00;;;-144.05;22.51;125687.94;4980730;23;20049;-87
2022/08/11 10:19:18;;;;;;;7.18;2.40;;;33.30;44.80;;;-144.05;22.75;125687.94;4947187;29;20027;-87
2022/08/11 10:27:29;;;;;;;6.30;2.25;;;33.30;45.50;;;-144.05;22.31;125687.94;4958774;29;20038;-91
2022/08/11 10:35:31;;;;;;;5.47;2.50;;;33.20;45.70;;;-144.05;23.25;125687.94;4960232;29;20117;-89
2022/08/11 10:37:59;;;;;;;4.18;1.90;;;33.30;46.30;;;-144.05;22.96;125687.94;4961272;29;20039;-89
2022/08/11 10:40:26;;;;;;;4.18;2.00;;;33.20;44.90;;;-144.05;22.30;125687.94;4942539;29;20035;-86
2022/08/11 10:43:01;;;;;;;5.93;2.47;;;33.30;44.30;;;-144.05;22.36;125687.94;4941984;29;20600;-89
2022/08/11 10:48:36;;;;;;;3.78;2.00;;;33.70;44.40;;;-144.05;22.56;125687.94;4960165;29;20444;-88
2022/08/11 10:51:13;;;;;;;4.75;2.17;;;33.30;44.00;;;-144.05;22.68;125687.94;4959065;29;20075;-89
2022/08/11 10:59:29;;;;;;;5.38;2.10;;;33.40;43.50;;;-144.05;22.17;125687.94;4959404;29;20073;-88
2022/08/11 11:01:57;;;;;;;5.07;2.20;;;33.10;43.20;;;-144.05;22.97;125687.94;4942236;29;20385;-91
2022/08/11 11:04:53;;;;;;;4.47;2.22;;;33.00;44.90;;;-144.05;22.97;125687.94;4942519;29;20429;-90
2022/08/11 11:07:55;;;;;;;3.20;2.15;;;32.90;45.10;;;-144.05;22.77;125687.94;4942976;29;20035;-88
2022/08/11 11:10:21;;;;;;;3.75;2.08;;;33.00;44.50;;;-144.05;22.43;125687.94;4944873;29;20038;-88
2022/08/11 11:18:36;;;;;;;3.45;2.35;;;33.20;45.30;;;-144.05;22.43;125687.94;4982165;28;20089;-91
2022/08/11 11:21:09;;;;;;;4.28;2.00;;;33.30;43.90;;;-144.05;22.38;125687.94;4965202;28;20031;-88
2022/08/11 11:23:41;;;;;;;5.70;2.08;;;33.30;43.40;;;-144.05;22.35;125687.94;4965942;28;20027;-90
2022/08/11 11:26:57;;;;;;;5.30;2.22;;;33.50;43.80;;;-144.05;23.02;125687.94;4992095;28;20019;-87
2022/08/11 11:30:01;;;;;;;4.07;2.40;;;33.50;43.50;;;-144.05;22.68;125687.94;4972882;28;20038;-88
2022/08/11 11:32:57;;;;;;;3.65;1.95;;;33.50;42.90;;;-144.05;22.82;125687.94;4983690;28;20033;-89
2022/08/11 11:36:07;;;;;;;;;;;33.20;43.40;;;-144.05;22.30;125687.94;4983861;28;20042;-88
2022/08/11 11:38:34;;;;;;;2.97;1.67;;;33.30;43.20;;;-144.05;22.41;125687.94;4969932;28;19941;-84
2022/08/11 11:43:46;;;;;;;4.32;2.00;;;33.50;44.90;;;-144.05;22.52;125687.94;4989520;28;20111;-88
2022/08/11 11:46:14;;;;;;;3.05;2.10;;;33.60;43.40;;;-144.05;22.48;125687.94;4986791;28;20035;-88
2022/08/11 11:48:40;;;;;;;4.43;2.05;;;33.50;44.00;;;-144.05;22.96;125687.94;4965425;28;20085;-87
2022/08/11 11:51:12;;;;;;;4.78;2.05;;;33.80;44.60;;;-144.05;22.17;125687.94;4982878;28;20027;-90
2022/08/11 11:53:44;;;;;;;5.68;1.80;;;33.70;42.80;;;-144.05;22.19;125687.94;4966447;28;20496;-89
2022/08/11 11:56:12;;;;;;;4.45;2.28;;;33.70;42.80;;;-144.05;22.71;125687.94;4965433;28;20126;-89
2022/08/11 12:01:26;;;;;;;4.28;2.20;;;33.60;43.80;;;-144.05;22.76;125687.94;4983716;28;20157;-87
2022/08/11 12:03:57;;;;;;;2.45;2.00;;;33.80;44.10;;;-144.05;22.94;125687.94;4969426;28;20038;-88
2022/08/11 12:06:26;;;;;;;5.43;2.30;;;33.80;44.10;;;-144.05;22.46;125687.94;4967211;28;20027;-86
2022/08/11 12:08:57;;;;;;;2.38;2.10;;;34.00;43.90;;;-144.05;22.11;125687.94;4965610;28;20058;-86
2022/08/11 12:14:19;;;;;;;6.28;2.25;;;34.10;43.30;;;-144.05;22.38;125687.94;4968263;28;20131;-86
2022/08/11 12:16:48;;;;;;;5.28;2.20;;;34.20;42.80;;;-144.05;22.31;125687.94;4962855;29;20039;-89
2022/08/11 12:19:23;;;;;;;7.43;2.28;;;34.00;42.20;;;-144.05;23.44;125687.94;4952202;29;20035;-86
2022/08/11 12:27:29;;;;;;;4.10;2.30;;;34.30;43.30;;;-144.05;22.00;125687.94;4965212;29;20115;-86
2022/08/11 12:30:04;;;;;;;4.38;2.22;;;34.40;42.40;;;-144.05;21.89;125687.94;4945010;29;20023;-89
2022/08/11 12:32:35;;;;;;;6.85;2.28;;;34.10;41.60;;;-144.05;22.50;125687.94;4943579;29;20098;-87
2022/08/11 12:35:04;;;;;;;5.43;2.22;;;33.90;42.80;;;-144.05;22.16;125687.94;4941637;29;20035;-90
2022/08/11 12:37:40;;;;;;;2.65;1.98;;;33.80;42.20;;;-144.05;22.31;125687.94;4942489;29;20107;-88
2022/08/11 12:46:01;;;;;;;2.95;1.80;;;33.80;41.40;;;-144.05;22.15;125687.94;4961746;29;19920;-89
2022/08/11 12:54:27;;;;;;;5.78;2.10;;;33.70;42.90;;;-144.05;21.78;125687.94;4961907;29;20055;-91
2022/08/11 13:06:06;;;;;;;3.00;2.20;;;33.50;42.20;;;-144.05;21.19;125687.94;4960529;29;20182;-90
2022/08/11 13:08:38;;;;;;;6.07;2.33;;;33.60;39.70;;;-144.05;21.63;125687.94;4947615;29;20027;-88
2022/08/11 13:13:57;;;;;;;4.38;2.03;;;33.70;41.20;;;-144.05;22.16;125687.94;4975334;28;20086;-87
2022/08/11 13:17:19;;;;;;;6.15;2.15;;;33.90;42.70;;;-144.05;21.55;125687.94;4965163;28;20042;-90
2022/08/11 13:19:20;;;;;;;5.07;2.05;;;33.80;40.50;;;-144.05;21.41;125687.94;4986611;28;20362;-88
2022/08/11 13:21:51;;;;;;;5.70;2.22;;;33.60;40.00;;;-144.05;21.96;125687.94;4965917;28;20121;-86
2022/08/11 13:24:20;;;;;;;4.78;2.00;;;33.40;41.10;;;-144.05;21.74;125687.94;4973664;28;20023;-85
2022/08/11 13:26:49;;;;;;;7.97;2.20;;;33.30;40.50;;;-144.05;21.91;125687.94;4980474;28;20082;-84
2022/08/11 13:29:27;;;;;;;4.38;2.20;;;33.10;40.90;;;-144.05;21.95;125687.94;4977011;28;20039;-89
2022/08/11 13:31:58;;;;;;;3.05;1.73;;;33.20;40.90;;;-144.05;21.79;125687.94;4979135;28;20030;-88
2022/08/11 13:34:32;;;;;;;5.80;2.10;;;33.10;41.00;;;-144.05;21.86;125687.94;4963176;28;20030;-85
2022/08/11 13:37:03;;;;;;;5.18;2.30;;;33.10;41.20;;;-144.05;21.80;125687.94;4959157;28;20555;-86
2022/08/11 13:39:34;;;;;;;3.40;2.38;;;33.10;40.80;;;-144.05;21.98;125687.94;4961783;28;20089;-88
2022/08/11 13:42:04;;;;;;;4.50;2.28;;;33.20;41.10;;;-144.05;21.33;125687.94;4961644;28;20185;-87
2022/08/11 13:44:37;;;;;;;2.95;2.03;;;33.50;40.10;;;-144.05;21.69;125687.94;4961969;28;20085;-90
2022/08/11 13:47:10;;;;;;;3.90;2.03;;;33.40;40.40;;;-144.05;21.44;125687.94;4977091;28;20441;-88
2022/08/11 13:49:41;;;;;;;3.40;1.80;;;33.50;40.10;;;-144.05;21.54;125687.94;4959218;28;20027;-86
2022/08/11 13:52:16;;;;;;;6.85;2.08;;;33.40;40.20;;;-144.05;21.21;125687.94;4958839;28;20031;-89
2022/08/11 13:54:48;;;;;;;6.80;2.00;;;33.20;39.80;;;-144.05;21.82;125687.94;4976342;28;20027;-91
2022/08/11 13:57:17;;;;;;;3.45;1.90;;;33.20;41.30;;;-144.05;22.18;125687.94;4959072;28;20126;-91
2022/08/11 13:59:53;;;;;;;7.97;2.40;;;33.30;41.70;;;-144.05;21.78;125687.94;4975179;28;20077;-88
2022/08/11 14:02:30;;;;;;;;;;;33.20;41.10;;;-144.05;22.38;125687.94;4958433;28;20401;-86
2022/08/11 14:05:14;;;;;;;5.35;1.90;;;33.00;41.80;;;-144.05;21.95;125687.94;4959785;28;20294;-90
2022/08/11 14:07:52;;;;;;;3.22;2.20;;;32.80;41.00;;;-144.05;22.01;125687.94;4959186;28;20074;-89
2022/08/11 14:10:25;;;;;;;6.65;2.63;;;32.70;40.80;;;-144.05;21.92;125687.94;4977634;28;20027;-86
2022/08/11 14:15:56;;;;;;;3.58;2.58;;;32.70;42.70;;;-144.05;22.00;125687.94;4938356;29;20410;-89
2022/08/11 14:18:28;;;;;;;4.97;2.30;;;32.60;40.90;;;-144.05;22.06;125687.94;4921293;29;20063;-85
2022/08/11 14:23:58;;;;;;;6.15;1.88;;;32.50;42.60;;;-144.05;22.42;125687.94;4938032;29;20067;-86
2022/08/11 14:26:26;;;;;;;2.80;2.10;;;32.40;42.40;;;-144.05;22.56;125687.94;4953995;29;20091;-85
2022/08/11 14:29:19;;;;;;;6.47;2.10;;;32.30;42.30;;;-144.05;22.40;125687.94;4928078;29;20043;-89
2022/08/11 14:31:52;;;;;;;6.65;2.05;;;32.20;41.70;;;-144.05;22.75;125687.94;4920913;29;20032;-90
2022/08/11 14:34:24;;;;;;;5.22;2.40;;;32.00;42.00;;;-144.05;22.88;125687.94;4938763;29;20471;-88
2022/08/11 14:37:00;;;;;;;2.35;1.80;;;31.90;43.00;;;-144.05;22.66;125687.94;4923099;29;20445;-89
2022/08/11 14:39:35;;;;;;;5.88;2.10;;;31.90;42.20;;;-144.05;22.70;125687.94;4920862;29;20028;-87
2022/08/11 14:47:51;;;;;;;6.53;2.22;;;32.00;41.70;;;-144.05;22.84;125687.94;4937957;29;20034;-91
2022/08/11 14:50:31;;;;;;;4.35;2.30;;;32.20;42.90;;;-144.05;22.34;125687.94;4923236;29;20035;-89
2022/08/11 14:53:06;;;;;;;5.45;2.05;;;32.10;41.70;;;-144.05;22.55;125687.94;4922214;29;20028;-88
2022/08/11 14:58:32;;;;;;;3.53;2.15;;;31.80;42.00;;;-144.05;22.65;125687.94;4940058;29;20066;-90
2022/08/11 15:03:05;;;;;;;4.00;2.00;;;31.70;42.30;;;-144.05;22.71;125687.94;4938372;29;20110;-89
2022/08/11 15:03:51;;;;;;;7.75;2.72;;;31.80;42.80;;;-144.05;22.70;125687.94;4938181;29;20023;-90
2022/08/11 15:06:17;;;;;;;4.18;1.90;;;31.80;42.40;;;-144.05;22.59;125687.94;4923195;29;20034;-88
2022/08/11 15:08:56;;;;;;;2.80;2.25;;;31.70;42.30;;;-144.05;22.70;125687.94;4939734;29;20027;-88
2022/08/11 15:17:06;;;;;;;2.90;2.28;;;31.50;42.30;;;-144.05;22.84;125687.94;4971946;28;20037;-91
2022/08/11 15:17:07;;;;;;;3.05;2.13;;;31.40;42.60;;;-144.05;22.80;125687.94;4978885;28;20030;-86
2022/08/11 15:19:36;;;;;;;2.95;2.30;;;31.30;42.40;;;-144.05;22.79;125687.94;4982469;28;20027;-90
2022/08/11 15:24:47;;;;;;;5.20;2.75;;;31.10;43.00;;;-144.05;23.34;125687.94;4983166;28;20033;-88
2022/08/11 15:38:34;;;;;;;6.80;2.35;;;30.80;43.90;;;-144.05;23.53;125687.94;4981240;28;20072;-90
2022/08/11 15:46:53;;;;;;;3.70;2.50;;;30.80;43.90;;;-144.05;23.32;125687.94;4980292;28;20104;-86
2022/08/11 15:49:38;;;;;;;6.03;2.53;;;30.80;43.60;;;-144.05;23.46;125687.94;4980263;28;20030;-88
2022/08/11 15:52:18;;;;;;;5.22;2.47;;;30.60;43.80;;;-144.05;23.42;125687.94;4979263;28;20023;-85
2022/08/11 15:54:47;;;;;;;4.82;2.65;;;30.50;43.90;;;-144.05;23.85;125687.94;4979304;28;20031;-85
2022/08/11 16:05:25;;;;;;;3.97;2.38;;;30.00;44.20;;;-144.05;23.95;125687.94;4980383;28;20066;-89
2022/08/11 16:07:55;;;;;;;6.47;2.22;;;29.90;44.00;;;-144.05;23.62;125687.94;4963106;28;20033;-89
2022/08/11 16:10:22;;;;;;;3.33;2.05;;;29.80;44.40;;;-144.05;24.23;125687.94;4962821;28;20031;-88
2022/08/11 16:18:56;;;;;;;3.97;2.50;;;29.70;44.70;;;-144.05;24.19;125687.94;4961366;29;20038;-84
2022/08/11 16:21:39;;;;;;;5.53;2.38;;;29.70;45.40;;;-144.05;24.34;125687.94;4941678;29;20046;-85
2022/08/11 16:24:12;;;;;;;5.53;2.55;;;29.60;46.20;;;-144.05;24.61;125687.94;4958932;29;20086;-86
2022/08/11 16:26:43;;;;;;;4.70;2.25;;;29.50;45.90;;;-144.05;24.51;125687.94;4941401;29;20101;-86
2022/08/11 16:29:11;;;;;;;3.72;2.47;;;29.40;45.50;;;-144.05;24.65;125687.94;4941987;29;20073;-87
2022/08/11 16:31:41;;;;;;;4.07;2.53;;;29.40;45.90;;;-144.05;24.39;125687.94;4945467;29;20027;-86
2022/08/11 16:38:34;;;;;;;3.88;2.30;;;29.40;45.20;;;-144.05;24.37;125687.94;4949149;29;20114;-87
2022/08/11 16:39:47;;;;;;;7.90;2.60;;;29.30;45.10;;;-144.05;24.72;125687.94;4958565;29;20042;-85
2022/08/11 16:47:46;;;;;;;6.38;2.40;;;29.20;45.80;;;-144.05;24.45;125687.94;4961547;29;20050;-84
2022/08/11 16:50:14;;;;;;;6.35;2.35;;;29.20;45.70;;;-144.05;24.84;125687.94;4946885;29;20436;-84
2022/08/11 16:52:41;;;;;;;5.47;2.50;;;29.20;46.50;;;-144.05;25.28;125687.94;4963903;29;20043;-85
2022/08/11 16:55:09;;;;;;;3.97;2.35;;;29.10;47.50;;;-144.05;24.99;125687.94;4948831;29;20031;-84
2022/08/11 17:00:24;;;;;;;4.57;2.92;;;29.10;46.40;;;-144.05;24.82;125687.94;4976466;29;20070;-86
2022/08/11 17:14:48;;;;;;;9.25;2.80;;;28.80;47.10;;;-144.05;25.44;125687.94;4978958;28;20039;-86
2022/08/11 17:17:36;;;;;;;5.13;3.00;;;28.70;47.40;;;-144.05;25.57;125687.94;4962505;29;20031;-86
2022/08/11 17:20:11;;;;;;;4.15;2.63;;;28.70;47.50;;;-144.05;25.61;125687.94;4962232;29;20031;-86
2022/08/11 17:25:31;;;;;;;5.53;2.70;;;28.60;47.60;;;-144.05;25.33;125687.94;4960578;29;20035;-87
2022/08/11 17:28:01;;;;;;;4.22;2.85;;;28.60;47.30;;;-144.05;25.40;125687.94;4961227;29;20078;-89
2022/08/11 17:36:11;;;;;;;4.15;2.70;;;28.50;47.50;;;-144.05;25.92;125687.94;4962931;29;20034;-86
2022/08/11 17:38:41;;;;;;;5.82;2.38;;;28.40;48.30;;;-144.05;25.63;125687.94;4943368;29;20059;-86
2022/08/11 17:49:36;;;;;;;5.03;2.53;;;28.30;48.20;;;-144.05;25.81;125687.94;4962915;29;20121;-86